Time;durP1;ratioP1;P1;durP2;ratioP2;P2;SDS_P1;SDS_P2;PMS_P1;PMS_P2;Temp;Humidity;BMP_temperature;BMP_pressure;BME280_temperature;BME280_humidity;BME280_pressure;Samples;Min_cycle;Max_cycle;Signal;HPM_P1;HPM_P2
2021/09/07 00:00:41;;;;;;;106.43;99.87;;;12.90;99.90;;;;;;4916135;29;20489;-82
2021/09/07 00:03:16;;;;;;;95.70;89.97;;;12.90;99.90;;;;;;4915948;29;20828;-82
2021/09/07 00:06:22;;;;;;;;;;;;;;;;;;;;;
2021/09/07 00:08:52;;;;;;;122.50;115.80;;;13.00;99.90;;;;;;4900192;29;20871;-82
2021/09/07 00:11:21;;;;;;;112.97;106.30;;;13.00;99.90;;;;;;4916190;29;20465;-82
2021/09/07 00:14:01;;;;;;;109.40;103.13;;;13.00;99.90;;;;;;4916092;29;20465;-82
2021/09/07 00:16:31;;;;;;;123.50;117.00;;;12.90;99.90;;;;;;4916294;29;20458;-82
2021/09/07 00:19:02;;;;;;;131.13;124.23;;;13.00;99.90;;;;;;4919123;29;20484;-82
2021/09/07 00:21:38;;;;;;;131.30;123.17;;;13.00;99.90;;;;;;4919427;29;20524;-82
2021/09/07 00:24:28;;;;;;;;;;;;;;;;;;;;;
2021/09/07 00:27:22;;;;;;;;;;;;;;;;;;;;;
2021/09/07 00:30:36;;;;;;;;;;;;;;;;;;;;;
2021/09/07 00:33:10;;;;;;;139.33;131.63;;;13.20;99.90;;;;;;4899675;29;20528;-82
2021/09/07 00:36:04;;;;;;;136.00;128.50;;;13.20;99.90;;;;;;4919233;29;20466;-82
2021/09/07 00:38:33;;;;;;;134.30;127.17;;;13.20;99.90;;;;;;4918147;29;20461;-83
2021/09/07 00:41:06;;;;;;;133.37;125.60;;;13.30;99.90;;;;;;4918812;29;20494;-82
2021/09/07 00:46:45;;;;;;;117.37;110.87;;;13.40;99.90;;;;;;4918768;29;20894;-82
2021/09/07 00:49:28;;;;;;;117.63;111.10;;;13.30;99.90;;;;;;4919035;29;20517;-83
2021/09/07 00:52:10;;;;;;;114.73;108.30;;;13.40;99.90;;;;;;4917712;29;20460;-82
2021/09/07 00:54:48;;;;;;;110.83;104.70;;;13.40;99.90;;;;;;4887454;29;20576;-83
2021/09/07 00:57:16;;;;;;;114.67;108.67;;;13.40;99.90;;;;;;4918714;29;20893;-82
2021/09/07 01:03:04;;;;;;;109.50;103.20;;;13.20;99.90;;;;;;4903227;29;20468;-83
2021/09/07 01:05:38;;;;;;;116.47;109.60;;;13.10;99.90;;;;;;4918687;29;20797;-82
2021/09/07 01:08:08;;;;;;;120.90;114.40;;;13.00;99.90;;;;;;4917442;29;20910;-82
2021/09/07 01:10:44;;;;;;;115.00;108.03;;;13.00;99.90;;;;;;4918680;29;20462;-82
2021/09/07 01:16:01;;;;;;;124.50;117.80;;;12.90;99.90;;;;;;4917067;29;20453;-82
2021/09/07 01:18:39;;;;;;;135.07;127.50;;;12.80;99.90;;;;;;4918411;29;20537;-82
2021/09/07 01:21:12;;;;;;;150.17;141.63;;;12.70;99.90;;;;;;4918139;29;20525;-83
2021/09/07 01:23:44;;;;;;;145.47;137.37;;;12.90;99.90;;;;;;4917060;29;20518;-82
2021/09/07 01:26:35;;;;;;;;;;;;;;;;;;;;;
2021/09/07 01:29:08;;;;;;;147.23;138.90;;;12.70;99.90;;;;;;4884705;29;20454;-82
2021/09/07 01:32:13;;;;;;;;;;;;;;;;;;;;;
2021/09/07 01:38:56;;;;;;;;;;;;;;;;;;;;;
2021/09/07 01:45:12;;;;;;;163.10;154.37;;;12.50;99.90;;;;;;4822983;29;20450;-82
2021/09/07 01:47:54;;;;;;;165.00;155.03;;;12.50;99.90;;;;;;4917747;29;20458;-82
2021/09/07 01:50:58;;;;;;;;;;;;;;;;;;;;;
2021/09/07 01:54:12;;;;;;;167.73;158.53;;;12.70;99.90;;;;;;4916537;29;20816;-82
2021/09/07 01:57:11;;;;;;;;;;;;;;;;;;;;;
2021/09/07 02:06:40;;;;;;;179.70;169.90;;;12.50;99.90;;;;;;4853430;29;20592;-82
2021/09/07 02:09:24;;;;;;;;;;;;;;;;;;;;;
2021/09/07 02:12:23;;;;;;;;;;;;;;;;;;;;;
2021/09/07 02:15:00;;;;;;;191.80;179.37;;;12.30;99.90;;;;;;4774077;29;20460;-82
2021/09/07 02:20:50;;;;;;;185.30;175.20;;;12.30;99.90;;;;;;4823954;29;20499;-82
2021/09/07 02:24:09;;;;;;;;;;;;;;;;;;;;;
2021/09/07 02:33:29;;;;;;;194.73;183.63;;;12.20;99.90;;;;;;4846205;29;20459;-82
2021/09/07 02:36:26;;;;;;;;;;;;;;;;;;;;;
2021/09/07 02:39:19;;;;;;;;;;;;;;;;;;;;;
2021/09/07 02:44:58;;;;;;;;;;;;;;;;;;;;;
2021/09/07 02:47:53;;;;;;;236.60;223.00;;;12.30;99.90;;;;;;4863885;29;20458;-82
2021/09/07 02:50:53;;;;;;;;;;;;;;;;;;;;;
2021/09/07 02:53:38;;;;;;;211.63;199.63;;;12.30;99.90;;;;;;4800869;29;20483;-82
2021/09/07 02:56:55;;;;;;;;;;;;;;;;;;;;;
2021/09/07 03:00:01;;;;;;;;;;;;;;;;;;;;;
2021/09/07 03:05:52;;;;;;;199.67;185.97;;;12.20;99.90;;;;;;4821574;29;20466;-82
2021/09/07 03:12:46;;;;;;;;;;;;;;;;;;;;;
2021/09/07 03:18:26;;;;;;;196.80;184.30;;;12.20;99.90;;;;;;4821359;29;20462;-82
2021/09/07 03:22:05;;;;;;;188.67;176.67;;;12.10;99.90;;;;;;4839936;29;20581;-82
2021/09/07 03:25:05;;;;;;;173.97;163.30;;;12.10;99.90;;;;;;4767361;30;20471;-83
2021/09/07 03:34:25;;;;;;;208.20;196.50;;;11.80;99.90;;;;;;4884067;29;20461;-82
2021/09/07 03:37:15;;;;;;;213.53;201.70;;;11.80;99.90;;;;;;4885461;29;20975;-82
2021/09/07 03:40:07;;;;;;;;;;;;;;;;;;;;;
2021/09/07 03:43:16;;;;;;;;;;;;;;;;;;;;;
2021/09/07 03:45:57;;;;;;;213.37;200.07;;;11.80;99.90;;;;;;4876680;29;20467;-82
2021/09/07 03:48:41;;;;;;;;;;;;;;;;;;;;;
2021/09/07 03:51:26;;;;;;;232.10;218.03;;;11.80;99.90;;;;;;4873399;29;20463;-82
2021/09/07 03:54:03;;;;;;;227.50;213.37;;;11.80;99.90;;;;;;4879121;29;20483;-82
2021/09/07 03:56:36;;;;;;;236.70;222.20;;;11.80;99.90;;;;;;4879902;29;20459;-82
2021/09/07 03:59:15;;;;;;;;;;;;;;;;;;;;;
2021/09/07 04:01:54;;;;;;;238.33;223.83;;;11.90;99.90;;;;;;4889499;29;20840;-82
2021/09/07 04:04:25;;;;;;;243.43;228.03;;;12.00;99.90;;;;;;4919628;29;20500;-82
2021/09/07 04:07:23;;;;;;;;;;;;;;;;;;;;;
2021/09/07 04:10:26;;;;;;;248.33;233.33;;;12.10;99.90;;;;;;4919601;29;20820;-82
2021/09/07 04:13:18;;;;;;;;;;;;;;;;;;;;;
2021/09/07 04:15:52;;;;;;;239.80;225.50;;;12.20;99.90;;;;;;4919417;29;20557;-82
2021/09/07 04:18:26;;;;;;;237.43;223.23;;;12.40;99.90;;;;;;4919221;29;20496;-82
2021/09/07 04:21:12;;;;;;;205.80;193.67;;;12.50;99.90;;;;;;4919363;29;21000;-82
2021/09/07 04:30:55;;;;;;;177.97;166.57;;;12.40;99.90;;;;;;4814912;29;20980;-82
2021/09/07 04:33:49;;;;;;;180.47;169.93;;;12.40;99.90;;;;;;4857421;29;20471;-82
2021/09/07 04:36:39;;;;;;;;;;;;;;;;;;;;;
2021/09/07 04:43:10;;;;;;;181.47;170.47;;;12.60;99.90;;;;;;4751821;30;20501;-83
2021/09/07 04:46:29;;;;;;;185.53;174.70;;;12.60;99.90;;;;;;4699613;30;20958;-82
2021/09/07 04:49:27;;;;;;;189.67;178.17;;;12.80;99.90;;;;;;4744561;29;20598;-82
2021/09/07 04:52:41;;;;;;;193.43;182.13;;;12.80;99.90;;;;;;4814895;29;20576;-83
2021/09/07 04:55:47;;;;;;;192.23;181.27;;;13.00;99.90;;;;;;4903000;29;20548;-83
2021/09/07 04:59:09;;;;;;;;;;;;;;;;;;;;;
2021/09/07 05:01:54;;;;;;;190.83;179.93;;;13.10;99.90;;;;;;4866807;29;20486;-82
2021/09/07 05:04:21;;;;;;;196.27;182.83;;;13.20;99.90;;;;;;4918262;29;20474;-82
2021/09/07 05:07:32;;;;;;;189.10;177.57;;;13.30;99.90;;;;;;4918626;29;20517;-82
2021/09/07 05:10:01;;;;;;;186.47;175.33;;;13.30;99.90;;;;;;4911143;29;20470;-82
2021/09/07 05:13:06;;;;;;;176.17;165.17;;;13.40;99.90;;;;;;4918556;29;20456;-82
2021/09/07 05:15:53;;;;;;;166.73;156.27;;;13.40;99.90;;;;;;4918487;29;20493;-82
2021/09/07 05:18:21;;;;;;;165.83;155.70;;;13.40;99.90;;;;;;4918305;29;20809;-82
2021/09/07 05:20:50;;;;;;;164.23;154.30;;;13.50;99.90;;;;;;4918326;29;20461;-82
2021/09/07 05:23:18;;;;;;;166.77;156.57;;;13.60;99.90;;;;;;4917094;29;20457;-82
2021/09/07 05:25:46;;;;;;;163.23;153.33;;;13.70;99.90;;;;;;4918302;29;20473;-82
2021/09/07 05:28:19;;;;;;;152.33;142.73;;;13.80;99.90;;;;;;4918080;29;20453;-82
2021/09/07 05:30:50;;;;;;;146.57;137.10;;;13.80;99.90;;;;;;4918265;29;20454;-82
2021/09/07 05:33:44;;;;;;;;;;;;;;;;;;;;;
2021/09/07 05:36:31;;;;;;;127.67;119.87;;;13.90;99.90;;;;;;4890989;29;20941;-83
2021/09/07 05:38:58;;;;;;;116.97;109.97;;;14.00;99.90;;;;;;4916744;29;20854;-82
2021/09/07 05:41:56;;;;;;;;;;;;;;;;;;;;;
2021/09/07 05:44:24;;;;;;;107.30;100.90;;;14.20;99.90;;;;;;4868102;29;20545;-82
2021/09/07 05:46:53;;;;;;;113.07;106.00;;;14.40;99.90;;;;;;4917816;29;20457;-82
2021/09/07 05:49:32;;;;;;;;;;;;;;;;;;;;;
2021/09/07 05:52:02;;;;;;;104.17;98.13;;;14.50;99.90;;;;;;4899498;29;20470;-82
2021/09/07 05:54:30;;;;;;;103.90;97.90;;;14.60;99.90;;;;;;4917738;29;20511;-82
2021/09/07 05:57:11;;;;;;;97.10;91.10;;;14.70;99.90;;;;;;4917811;29;20454;-82
2021/09/07 05:59:45;;;;;;;74.97;69.60;;;14.90;99.90;;;;;;4917816;29;20480;-82
2021/09/07 06:02:24;;;;;;;;;;;;;;;;;;;;;
2021/09/07 06:05:07;;;;;;;;;;;;;;;;;;;;;
2021/09/07 06:07:42;;;;;;;75.70;70.90;;;15.20;99.90;;;;;;4912665;29;20478;-76
2021/09/07 06:10:10;;;;;;;66.33;61.63;;;15.50;99.90;;;;;;4917341;29;20984;-79
2021/09/07 06:12:37;;;;;;;60.13;55.20;;;15.50;99.90;;;;;;4917372;29;20462;-79
2021/09/07 06:15:41;;;;;;;;;;;;;;;;;;;;;
2021/09/07 06:18:45;;;;;;;;;;;;;;;;;;;;;
2021/09/07 06:25:07;;;;;;;;;;;;;;;;;;;;;
2021/09/07 06:27:36;;;;;;;30.80;27.10;;;16.10;99.90;;;;;;4871111;29;20455;-82
2021/09/07 06:33:19;;;;;;;29.37;23.83;;;16.40;99.70;;;;;;4917132;29;20496;-82
2021/09/07 06:36:04;;;;;;;30.60;23.83;;;16.50;99.40;;;;;;4916905;29;20919;-83
2021/09/07 06:41:48;;;;;;;28.27;21.37;;;16.80;95.60;;;;;;4916685;29;20467;-83
2021/09/07 06:44:57;;;;;;;;;;;;;;;;;;;;;
2021/09/07 06:47:30;;;;;;;30.00;20.37;;;16.90;93.80;;;;;;4902448;29;20461;-83
2021/09/07 06:50:17;;;;;;;;;;;;;;;;;;;;;
2021/09/07 06:53:09;;;;;;;31.80;18.07;;;17.40;90.60;;;;;;4910401;29;20575;-82
2021/09/07 06:59:21;;;;;;;24.60;17.30;;;17.50;86.10;;;;;;4787153;29;20971;-83
2021/09/07 07:09:05;;;;;;;35.20;17.87;;;17.90;84.20;;;;;;4725238;30;20469;-82
2021/09/07 07:12:13;;;;;;;28.23;18.70;;;17.80;84.10;;;;;;4820427;29;20466;-82
2021/09/07 07:15:12;;;;;;;34.57;19.87;;;17.80;84.10;;;;;;4820017;29;20905;-82
2021/09/07 07:21:14;;;;;;;34.30;19.07;;;18.10;79.10;;;;;;4679441;30;20571;-82
2021/09/07 07:23:43;;;;;;;30.97;18.53;;;18.20;79.20;;;;;;4749004;30;20865;-81
2021/09/07 08:52:53;;;;;;;;;;;;;;;;;;;;;
2021/09/07 08:56:04;;;;;;;;;;;;;;;;;;;;;
2021/09/07 09:23:08;;;;;;;30.63;22.60;;;24.60;30.40;;;;;;4710941;30;20701;-82
2021/09/07 09:31:20;;;;;;;33.00;23.47;;;25.30;26.50;;;;;;4774618;29;20456;-82
2021/09/07 09:34:01;;;;;;;34.27;23.80;;;26.20;24.70;;;;;;4880596;29;20502;-82
2021/09/07 09:37:27;;;;;;;;;;;;;;;;;;;;;
2021/09/07 09:40:20;;;;;;;31.90;22.23;;;26.70;24.30;;;;;;4786760;30;20459;-82
2021/09/07 09:43:00;;;;;;;33.03;21.90;;;26.80;20.40;;;;;;4880318;29;20459;-82
2021/09/07 09:52:14;;;;;;;31.13;21.73;;;27.00;16.90;;;;;;4769108;29;20496;-82
2021/09/07 09:54:53;;;;;;;31.27;21.70;;;26.90;16.80;;;;;;4796032;29;20565;-82
2021/09/07 10:00:47;;;;;;;;;;;;;;;;;;;;;
2021/09/07 10:06:29;;;;;;;29.08;20.80;;;28.20;9.90;;;;;;4747015;30;20507;-82
2021/09/07 10:08:56;;;;;;;26.33;19.67;;;28.60;10.10;;;;;;4841641;29;20214;-80
2021/09/07 10:11:28;;;;;;;27.03;19.93;;;28.60;10.10;;;;;;4881205;29;20464;-76
2021/09/07 10:13:58;;;;;;;30.57;21.70;;;28.30;8.20;;;;;;4881186;29;20485;-77
2021/09/07 10:16:33;;;;;;;27.50;20.20;;;28.10;10.30;;;;;;4896485;29;20470;-75
2021/09/07 10:19:09;;;;;;;24.60;18.97;;;28.10;9.80;;;;;;4896732;29;21003;-76
2021/09/07 10:24:51;;;;;;;25.63;19.63;;;29.00;6.50;;;;;;4897743;29;20489;-75
2021/09/07 10:27:20;;;;;;;27.67;18.80;;;29.70;2.80;;;;;;4898383;29;20437;-76
2021/09/07 10:29:47;;;;;;;28.33;19.33;;;29.80;2.90;;;;;;4898237;29;20462;-76
2021/09/07 10:32:44;;;;;;;25.60;18.27;;;29.90;1.00;;;;;;4898210;29;20454;-82
2021/09/07 10:38:17;;;;;;;28.20;17.93;;;29.90;1.00;;;;;;4894276;29;20928;-81
2021/09/07 10:44:31;;;;;;;19.90;14.03;;;30.80;1.00;;;;;;4877066;29;21013;-82
2021/09/07 10:47:47;;;;;;;27.83;16.30;;;31.40;1.00;;;;;;4842451;29;21073;-81
2021/09/07 10:50:48;;;;;;;;;;;;;;;;;;;;;
2021/09/07 10:53:28;;;;;;;19.70;13.90;;;31.60;1.00;;;;;;4888326;29;20482;-81
2021/09/07 10:56:44;;;;;;;21.67;15.47;;;31.50;1.00;;;;;;4897875;29;20472;-81
2021/09/07 10:59:59;;;;;;;21.20;14.70;;;31.70;1.00;;;;;;4897798;29;20437;-81
2021/09/07 11:03:04;;;;;;;21.40;15.70;;;31.80;1.00;;;;;;4890762;29;20458;-81
2021/09/07 11:05:56;;;;;;;19.87;14.63;;;31.70;1.00;;;;;;4883400;29;20436;-82
2021/09/07 11:09:33;;;;;;;;;;;;;;;;;;;;;
2021/09/07 11:12:30;;;;;;;19.10;13.50;;;31.70;1.00;;;;;;4839849;29;20444;-81
2021/09/07 11:15:09;;;;;;;20.07;14.40;;;31.60;1.00;;;;;;4897742;29;20832;-81
2021/09/07 11:17:39;;;;;;;20.10;14.87;;;31.90;1.00;;;;;;4897604;29;20846;-81
2021/09/07 11:20:13;;;;;;;19.50;14.53;;;32.50;1.00;;;;;;4897662;29;20978;-80
2021/09/07 11:22:43;;;;;;;19.57;14.40;;;33.10;1.00;;;;;;4896485;29;20462;-81
2021/09/07 11:25:13;;;;;;;20.07;14.57;;;33.10;1.00;;;;;;4897299;29;20437;-79
2021/09/07 11:28:00;;;;;;;20.97;14.03;;;33.50;1.00;;;;;;4897657;29;20466;-80
2021/09/07 11:30:33;;;;;;;17.70;13.10;;;33.70;1.00;;;;;;4897549;29;20929;-81
2021/09/07 11:33:07;;;;;;;18.80;12.80;;;32.40;1.00;;;;;;4897593;29;20433;-81
2021/09/07 11:35:42;;;;;;;18.17;13.90;;;32.10;1.00;;;;;;4897578;29;20458;-81
2021/09/07 11:38:16;;;;;;;19.73;13.27;;;32.90;1.00;;;;;;4896280;29;20476;-81
2021/09/07 11:40:45;;;;;;;15.13;11.13;;;32.60;1.00;;;;;;4897458;29;20954;-80
2021/09/07 11:43:13;;;;;;;17.37;13.70;;;32.60;1.00;;;;;;4889816;29;20552;-80
2021/09/07 11:45:40;;;;;;;20.17;14.37;;;33.10;1.00;;;;;;4876482;29;20468;-80
2021/09/07 11:48:08;;;;;;;20.30;14.40;;;33.40;1.00;;;;;;4876842;29;20491;-80
2021/09/07 11:50:38;;;;;;;17.83;13.67;;;33.70;1.00;;;;;;4894798;29;20481;-80
2021/09/07 11:53:08;;;;;;;18.07;14.40;;;33.70;1.00;;;;;;4895813;29;20537;-80
2021/09/07 11:59:38;;;;;;;16.80;12.77;;;32.90;1.00;;;;;;4814987;29;20498;-86
2021/09/07 12:03:03;;;;;;;;;;;;;;;;;;;;;
2021/09/07 12:10:00;;;;;;;16.40;12.00;;;32.70;1.00;;;;;;4821495;29;20462;-83
2021/09/07 12:16:29;;;;;;;;;;;;;;;;;;;;;
2021/09/07 13:12:05;;;;;;;13.50;8.87;;;34.90;1.00;;;;;;4754376;29;20533;-83
2021/09/07 13:24:46;;;;;;;15.73;10.83;;;31.00;1.00;;;;;;4731185;30;20600;-83
2021/09/07 13:40:48;;;;;;;13.07;7.83;;;32.60;1.00;;;;;;4751015;29;20439;-83
2021/09/07 13:47:17;;;;;;;8.70;6.30;;;33.90;1.00;;;;;;4766827;30;20544;-88
2021/09/07 13:53:23;;;;;;;;;;;;;;;;;;;;;
2021/09/07 13:56:15;;;;;;;11.40;6.70;;;32.90;1.00;;;;;;4824770;29;20488;-83
2021/09/07 14:02:29;;;;;;;;;;;;;;;;;;;;;
2021/09/07 14:17:27;;;;;;;15.47;8.60;;;32.40;1.00;;;;;;4734109;30;20485;-83
2021/09/07 14:23:26;;;;;;;12.50;9.67;;;31.90;1.00;;;;;;4696396;30;20529;-83
2021/09/07 14:25:57;;;;;;;10.67;8.17;;;32.20;1.00;;;;;;4802184;29;20531;-83
2021/09/07 14:29:00;;;;;;;;;;;;;;;;;;;;;
2021/09/07 14:31:34;;;;;;;11.27;8.10;;;33.00;1.00;;;;;;4776649;29;20434;-82
2021/09/07 14:34:19;;;;;;;;;;;;;;;;;;;;;
2021/09/07 14:37:03;;;;;;;14.93;8.70;;;32.30;1.00;;;;;;4839908;29;20432;-82
2021/09/07 14:46:24;;;;;;;;;;;;;;;;;;;;;
2021/09/07 14:52:43;;;;;;;;;;;;;;;;;;;;;
2021/09/07 14:55:49;;;;;;;13.93;9.07;;;32.60;1.00;;;;;;4800610;29;20484;-84
2021/09/07 15:01:40;;;;;;;13.17;7.63;;;33.00;1.00;;;;;;4877377;29;20558;-84
2021/09/07 15:04:07;;;;;;;13.63;8.47;;;32.60;1.00;;;;;;4878875;29;20463;-79
2021/09/07 15:07:27;;;;;;;;;;;;;;;;;;;;;
2021/09/07 15:10:33;;;;;;;8.83;6.23;;;33.10;1.00;;;;;;4833786;29;20496;-83
2021/09/07 15:17:08;;;;;;;16.00;7.70;;;32.50;1.00;;;;;;4850337;29;20554;-84
2021/09/07 15:23:03;;;;;;;12.67;6.70;;;31.80;1.00;;;;;;4875974;29;20862;-83
2021/09/07 15:28:37;;;;;;;12.93;8.70;;;32.90;1.00;;;;;;4879222;29;20430;-83
2021/09/07 15:31:11;;;;;;;11.87;7.70;;;32.70;1.00;;;;;;4879007;29;20454;-83
2021/09/07 15:34:08;;;;;;;12.00;8.50;;;32.80;1.00;;;;;;4879140;29;20475;-83
2021/09/07 15:37:01;;;;;;;13.10;8.80;;;32.70;1.00;;;;;;4879054;29;20463;-84
2021/09/07 15:39:28;;;;;;;13.23;9.00;;;32.00;1.00;;;;;;4877912;29;20466;-82
2021/09/07 15:42:07;;;;;;;;;;;;;;;;;;;;;
2021/09/07 15:48:04;;;;;;;13.80;10.40;;;30.40;1.00;;;;;;4823323;29;21047;-83
2021/09/07 15:51:00;;;;;;;13.60;8.63;;;29.50;1.00;;;;;;4824720;29;20456;-83
2021/09/07 15:57:09;;;;;;;;;;;;;;;;;;;;;
2021/09/07 15:59:59;;;;;;;18.07;9.70;;;29.00;1.00;;;;;;4788476;29;20458;-83
2021/09/07 16:02:57;;;;;;;;;;;;;;;;;;;;;
2021/09/07 16:15:52;;;;;;;15.23;9.83;;;30.30;1.00;;;;;;4763116;30;20463;-84
2021/09/07 16:27:45;;;;;;;15.10;10.30;;;30.20;1.00;;;;;;4671052;30;20451;-80
2021/09/07 16:30:32;;;;;;;15.63;10.73;;;30.30;1.00;;;;;;4770322;30;20564;-81
2021/09/07 16:33:18;;;;;;;13.97;10.67;;;30.30;1.00;;;;;;4770358;29;20452;-82
2021/09/07 16:35:54;;;;;;;21.10;12.27;;;30.10;1.00;;;;;;4791918;29;21086;-82
2021/09/07 16:38:20;;;;;;;15.37;10.10;;;30.00;1.00;;;;;;4838416;29;20434;-78
2021/09/07 16:40:47;;;;;;;16.50;9.30;;;30.00;1.00;;;;;;4881516;29;20515;-78
2021/09/07 16:43:15;;;;;;;18.70;11.40;;;29.90;1.00;;;;;;4881552;29;20546;-79
2021/09/07 16:45:42;;;;;;;15.73;10.80;;;29.90;1.00;;;;;;4881350;29;20494;-79
2021/09/07 16:48:09;;;;;;;15.90;11.00;;;30.20;1.00;;;;;;4881385;29;20524;-79
2021/09/07 16:50:37;;;;;;;16.90;12.30;;;30.00;1.00;;;;;;4881129;29;20468;-79
2021/09/07 16:53:09;;;;;;;21.70;12.13;;;29.50;1.00;;;;;;4880164;29;20460;-79
2021/09/07 16:55:39;;;;;;;18.07;11.10;;;29.20;1.00;;;;;;4881096;29;20455;-78
2021/09/07 16:58:07;;;;;;;21.20;12.30;;;29.10;1.00;;;;;;4874572;29;21013;-80
2021/09/07 17:00:35;;;;;;;17.23;11.77;;;29.10;1.00;;;;;;4862412;29;20446;-80
2021/09/07 17:03:02;;;;;;;17.37;11.30;;;29.00;1.00;;;;;;4862487;29;20778;-82
2021/09/07 17:05:29;;;;;;;15.20;11.30;;;29.10;1.00;;;;;;4846683;29;20584;-80
2021/09/07 17:07:58;;;;;;;18.13;11.80;;;29.10;1.00;;;;;;4842871;29;20461;-81
2021/09/07 17:10:25;;;;;;;13.80;10.37;;;29.10;1.00;;;;;;4844052;29;20481;-80
2021/09/07 17:12:53;;;;;;;12.23;8.90;;;28.90;1.00;;;;;;4843882;29;20564;-80
2021/09/07 17:15:19;;;;;;;16.10;10.90;;;28.60;1.00;;;;;;4844033;29;20526;-80
2021/09/07 17:17:48;;;;;;;25.97;12.77;;;28.50;1.00;;;;;;4860048;29;20457;-80
2021/09/07 17:20:15;;;;;;;21.53;12.07;;;28.50;1.00;;;;;;4862195;29;20464;-80
2021/09/07 17:22:42;;;;;;;23.80;13.10;;;27.70;1.00;;;;;;4860955;29;20464;-81
2021/09/07 17:25:09;;;;;;;18.17;12.43;;;27.10;1.00;;;;;;4862158;29;20477;-80
2021/09/07 17:27:36;;;;;;;21.60;13.93;;;26.80;1.00;;;;;;4862112;29;20492;-79
2021/09/07 17:30:04;;;;;;;18.43;12.73;;;26.80;1.00;;;;;;4862047;29;21003;-79
2021/09/07 17:32:36;;;;;;;18.00;11.13;;;26.70;1.00;;;;;;4861949;29;20571;-79
2021/09/07 17:35:09;;;;;;;20.77;13.33;;;26.40;1.60;;;;;;4861895;29;20521;-78
2021/09/07 17:37:53;;;;;;;23.50;13.52;;;26.10;2.90;;;;;;4860253;29;20554;-78
2021/09/07 17:43:05;;;;;;;18.13;13.10;;;25.10;8.70;;;;;;4860097;29;20428;-79
2021/09/07 17:45:31;;;;;;;23.30;12.17;;;24.60;11.40;;;;;;4867094;29;20470;-81
2021/09/07 17:47:58;;;;;;;18.47;11.80;;;24.20;15.30;;;;;;4842009;29;20457;-79
2021/09/07 17:50:27;;;;;;;21.40;13.03;;;23.80;17.20;;;;;;4875491;29;20548;-79
2021/09/07 17:53:10;;;;;;;17.13;10.67;;;23.40;17.50;;;;;;4873416;29;20506;-80
2021/09/07 17:55:37;;;;;;;19.47;13.03;;;22.90;17.50;;;;;;4857362;29;21056;-81
2021/09/07 17:58:08;;;;;;;19.40;12.40;;;22.60;20.90;;;;;;4843063;29;20489;-81
2021/09/07 18:00:38;;;;;;;18.40;13.43;;;22.30;23.20;;;;;;4843123;29;20550;-81
2021/09/07 18:03:08;;;;;;;20.43;12.60;;;22.10;24.90;;;;;;4843230;29;20928;-80
2021/09/07 18:05:43;;;;;;;25.40;12.37;;;21.80;24.60;;;;;;4843007;29;20522;-84
2021/09/07 18:08:10;;;;;;;15.63;10.83;;;21.60;25.00;;;;;;4842097;29;20837;-86
2021/09/07 18:10:59;;;;;;;15.90;10.13;;;21.50;25.10;;;;;;4842300;29;20888;-86
2021/09/07 18:13:35;;;;;;;18.20;11.47;;;21.40;26.40;;;;;;4843858;29;20467;-83
2021/09/07 18:16:04;;;;;;;18.37;10.50;;;21.20;27.90;;;;;;4850241;29;20531;-86
2021/09/07 18:18:47;;;;;;;;;;;;;;;;;;;;;
2021/09/07 18:21:36;;;;;;;20.47;12.83;;;20.90;30.20;;;;;;4832795;29;20453;-86
2021/09/07 18:24:47;;;;;;;;;;;;;;;;;;;;;
2021/09/07 18:27:30;;;;;;;;;;;;;;;;;;;;;
2021/09/07 18:33:43;;;;;;;22.27;11.73;;;20.20;35.50;;;;;;4766955;30;20955;-89
2021/09/07 18:36:14;;;;;;;14.57;9.37;;;20.30;36.40;;;;;;4841498;29;20902;-84
2021/09/07 18:38:43;;;;;;;19.00;11.00;;;20.20;37.10;;;;;;4860008;29;20468;-85
2021/09/07 18:41:12;;;;;;;17.97;11.70;;;20.20;37.10;;;;;;4860805;29;20466;-84
2021/09/07 18:43:48;;;;;;;17.50;11.37;;;20.10;37.00;;;;;;4828383;29;20471;-84
2021/09/07 19:25:24;;;;;;;17.40;10.47;;;19.10;42.00;;;;;;4656497;30;20482;-81
2021/09/07 19:27:52;;;;;;;17.30;10.10;;;19.00;42.20;;;;;;4725676;30;20464;-81
2021/09/07 19:30:27;;;;;;;17.97;10.90;;;19.00;43.10;;;;;;4759653;29;20799;-82
2021/09/07 19:32:55;;;;;;;17.43;11.13;;;18.90;43.30;;;;;;4807118;29;21069;-81
2021/09/07 19:35:46;;;;;;;17.20;10.50;;;18.80;43.40;;;;;;4807141;29;20489;-94
2021/09/07 19:38:34;;;;;;;18.47;11.67;;;18.80;44.20;;;;;;4806294;29;20487;-90
2021/09/07 19:41:37;;;;;;;17.40;11.17;;;18.70;44.30;;;;;;4807573;29;20929;-91
2021/09/07 19:44:43;;;;;;;15.63;10.20;;;18.70;45.30;;;;;;4807253;29;20488;-93
2021/09/07 19:47:26;;;;;;;16.37;9.50;;;18.80;44.30;;;;;;4806934;29;20475;-91
2021/09/07 19:49:58;;;;;;;18.87;11.50;;;18.80;44.40;;;;;;4806895;29;20477;-89
2021/09/07 19:52:36;;;;;;;16.50;10.77;;;18.70;44.00;;;;;;4807635;29;20479;-92
2021/09/07 19:55:14;;;;;;;19.87;12.03;;;18.70;43.60;;;;;;4825591;29;20471;-92
2021/09/07 19:58:04;;;;;;;15.13;11.00;;;18.60;44.50;;;;;;4824708;29;20966;-93
2021/09/07 20:00:43;;;;;;;15.23;10.87;;;18.60;44.80;;;;;;4824781;29;20464;-93
2021/09/07 20:03:54;;;;;;;20.20;12.10;;;18.70;44.70;;;;;;4825024;29;21032;-91
2021/09/07 20:07:16;;;;;;;16.53;10.40;;;18.50;45.60;;;;;;4735068;30;21019;-93
2021/09/07 20:09:57;;;;;;;16.23;10.60;;;18.40;46.30;;;;;;4824356;29;20986;-93
2021/09/07 20:12:41;;;;;;;;;;;;;;;;;;;;;
2021/09/07 20:15:20;;;;;;;17.13;10.70;;;18.20;48.20;;;;;;4824104;29;20456;-88
2021/09/07 20:17:58;;;;;;;21.13;12.90;;;18.10;51.40;;;;;;4824587;29;20474;-93
2021/09/07 20:20:27;;;;;;;18.20;11.33;;;17.80;52.90;;;;;;4824507;29;20462;-93
2021/09/07 20:23:13;;;;;;;17.93;11.17;;;17.60;55.30;;;;;;4823517;29;20458;-94
2021/09/07 20:25:40;;;;;;;16.40;11.70;;;17.50;57.10;;;;;;4830484;29;20500;-89
2021/09/07 20:28:14;;;;;;;24.13;13.60;;;17.30;57.90;;;;;;4881769;29;20486;-91
2021/09/07 20:30:56;;;;;;;22.83;13.30;;;17.20;59.30;;;;;;4881696;29;20457;-90
2021/09/07 20:33:28;;;;;;;20.17;14.33;;;17.10;61.30;;;;;;4880560;29;20959;-91
2021/09/07 20:36:01;;;;;;;25.30;13.73;;;16.90;63.70;;;;;;4881480;29;20487;-91
2021/09/07 20:38:31;;;;;;;21.47;14.20;;;16.80;67.20;;;;;;4880830;29;21028;-91
2021/09/07 20:41:09;;;;;;;22.77;14.57;;;16.70;70.60;;;;;;4881571;29;20432;-90
2021/09/07 20:43:58;;;;;;;25.97;16.47;;;16.60;71.80;;;;;;4881569;29;20484;-93
2021/09/07 20:46:38;;;;;;;19.83;13.93;;;16.50;73.40;;;;;;4881248;29;20465;-92
2021/09/07 20:49:09;;;;;;;24.10;15.30;;;16.40;76.30;;;;;;4881412;29;20498;-91
2021/09/07 20:51:41;;;;;;;20.30;15.40;;;16.40;80.90;;;;;;4887996;29;20500;-92
2021/09/07 20:54:13;;;;;;;20.20;15.87;;;16.30;81.00;;;;;;4883922;29;20466;-91
2021/09/07 20:56:54;;;;;;;;;;;;;;;;;;;;;
2021/09/07 20:59:32;;;;;;;19.57;15.00;;;16.20;82.60;;;;;;4881381;29;20490;-92
2021/09/07 21:02:07;;;;;;;19.33;17.20;;;16.20;86.40;;;;;;4881126;29;21000;-90
2021/09/07 21:04:57;;;;;;;;;;;;;;;;;;;;;
2021/09/07 21:07:35;;;;;;;22.60;18.90;;;16.10;88.90;;;;;;4863201;29;20824;-91
2021/09/07 21:10:31;;;;;;;27.50;19.20;;;16.10;89.70;;;;;;4881050;29;20519;-90
2021/09/07 21:13:07;;;;;;;25.87;22.80;;;15.90;90.50;;;;;;4875561;29;20535;-91
2021/09/07 21:15:38;;;;;;;26.00;23.20;;;16.00;92.20;;;;;;4880617;29;20465;-91
2021/09/07 21:18:09;;;;;;;26.80;22.27;;;15.80;92.50;;;;;;4880811;29;20949;-92
2021/09/07 21:21:05;;;;;;;24.50;22.07;;;15.90;93.40;;;;;;4880577;29;20937;-93
2021/09/07 21:23:32;;;;;;;28.43;25.73;;;15.70;93.30;;;;;;4879110;29;20456;-92
2021/09/07 21:26:12;;;;;;;25.03;22.50;;;15.70;95.20;;;;;;4880679;29;20495;-91
2021/09/07 21:29:00;;;;;;;27.20;23.67;;;15.60;96.00;;;;;;4880942;29;20465;-90
2021/09/07 21:31:30;;;;;;;34.27;31.37;;;15.60;96.70;;;;;;4880668;29;20472;-89
2021/09/07 21:34:11;;;;;;;31.97;29.10;;;15.50;99.20;;;;;;4880809;29;20543;-91
2021/09/07 21:36:44;;;;;;;31.93;28.97;;;15.50;99.90;;;;;;4880535;29;20571;-90
2021/09/07 21:39:25;;;;;;;37.27;34.27;;;15.40;99.90;;;;;;4879772;29;20466;-92
2021/09/07 21:42:18;;;;;;;38.87;35.97;;;15.50;99.90;;;;;;4880585;29;20819;-89
2021/09/07 21:44:48;;;;;;;36.10;33.30;;;15.50;99.90;;;;;;4879979;29;20517;-92
2021/09/07 21:47:19;;;;;;;32.10;28.93;;;15.40;99.90;;;;;;4880526;29;20477;-90
2021/09/07 21:50:02;;;;;;;30.23;27.57;;;15.30;99.90;;;;;;4880500;29;20548;-90
2021/09/07 21:52:34;;;;;;;34.90;32.00;;;15.20;99.90;;;;;;4879161;29;20539;-89
2021/09/07 21:55:12;;;;;;;37.97;34.57;;;15.30;99.90;;;;;;4880315;29;20465;-90
2021/09/07 21:57:55;;;;;;;45.40;42.33;;;15.30;99.90;;;;;;4848080;29;20492;-91
2021/09/07 22:00:28;;;;;;;45.10;41.40;;;15.30;99.90;;;;;;4880020;29;20455;-91
2021/09/07 22:02:57;;;;;;;45.60;42.60;;;15.30;99.90;;;;;;4880006;29;20515;-91
2021/09/07 22:05:31;;;;;;;46.80;42.97;;;15.30;99.90;;;;;;4880318;29;20555;-91
2021/09/07 22:08:04;;;;;;;42.80;39.50;;;15.30;99.90;;;;;;4879231;29;20837;-89
2021/09/07 22:10:38;;;;;;;45.37;41.57;;;15.10;99.90;;;;;;4879985;29;20475;-92
2021/09/07 22:13:10;;;;;;;51.20;47.60;;;15.00;99.90;;;;;;4879896;29;20970;-89